sensor_id;sensor_type;location;lat;lon;timestamp;P1;durP1;ratioP1;P2;durP2;ratioP2
21012;SDS011;10664;53.582;9.712;2023-02-22T21:22:56;56.30;;;19.87;;
21012;SDS011;10664;53.582;9.712;2023-02-22T21:25:25;58.43;;;19.50;;
21012;SDS011;10664;53.582;9.712;2023-02-22T21:27:54;52.17;;;19.13;;
21012;SDS011;10664;53.582;9.712;2023-02-22T21:30:20;55.67;;;19.13;;
21012;SDS011;10664;53.582;9.712;2023-02-22T21:32:48;51.37;;;19.20;;
21012;SDS011;10664;53.582;9.712;2023-02-22T21:35:15;53.23;;;19.60;;
21012;SDS011;10664;53.582;9.712;2023-02-22T21:37:41;54.13;;;20.23;;
21012;SDS011;10664;53.582;9.712;2023-02-22T21:40:08;61.83;;;20.67;;
21012;SDS011;10664;53.582;9.712;2023-02-22T21:42:43;59.83;;;19.20;;
21012;SDS011;10664;53.582;9.712;2023-02-22T21:45:11;48.37;;;18.13;;
21012;SDS011;10664;53.582;9.712;2023-02-22T21:47:37;49.93;;;17.80;;
21012;SDS011;10664;53.582;9.712;2023-02-22T21:50:03;51.40;;;18.10;;
21012;SDS011;10664;53.582;9.712;2023-02-22T21:52:31;49.67;;;18.37;;
21012;SDS011;10664;53.582;9.712;2023-02-22T21:54:57;48.00;;;17.10;;
21012;SDS011;10664;53.582;9.712;2023-02-22T21:57:23;47.93;;;18.50;;
21012;SDS011;10664;53.582;9.712;2023-02-22T21:59:50;42.83;;;17.63;;
21012;SDS011;10664;53.582;9.712;2023-02-22T22:02:17;43.97;;;17.27;;
21012;SDS011;10664;53.582;9.712;2023-02-22T22:04:43;47.27;;;18.87;;
21012;SDS011;10664;53.582;9.712;2023-02-22T22:07:09;45.60;;;18.70;;
21012;SDS011;10664;53.582;9.712;2023-02-22T22:09:36;54.73;;;18.47;;
21012;SDS011;10664;53.582;9.712;2023-02-22T22:12:05;48.67;;;18.77;;
21012;SDS011;10664;53.582;9.712;2023-02-22T22:14:35;47.90;;;18.20;;
21012;SDS011;10664;53.582;9.712;2023-02-22T22:17:01;42.67;;;17.30;;
21012;SDS011;10664;53.582;9.712;2023-02-22T22:19:29;47.17;;;17.73;;
21012;SDS011;10664;53.582;9.712;2023-02-22T22:21:57;39.90;;;16.60;;
21012;SDS011;10664;53.582;9.712;2023-02-22T22:24:23;45.20;;;18.53;;
21012;SDS011;10664;53.582;9.712;2023-02-22T22:26:50;50.07;;;18.03;;
21012;SDS011;10664;53.582;9.712;2023-02-22T22:29:18;44.00;;;18.20;;
21012;SDS011;10664;53.582;9.712;2023-02-22T22:31:44;49.07;;;19.17;;
21012;SDS011;10664;53.582;9.712;2023-02-22T22:34:10;44.63;;;18.50;;
21012;SDS011;10664;53.582;9.712;2023-02-22T22:36:37;49.73;;;18.17;;
21012;SDS011;10664;53.582;9.712;2023-02-22T22:39:03;43.73;;;18.67;;
21012;SDS011;10664;53.582;9.712;2023-02-22T22:41:42;45.13;;;17.60;;
21012;SDS011;10664;53.582;9.712;2023-02-22T22:44:08;43.17;;;17.90;;
21012;SDS011;10664;53.582;9.712;2023-02-22T22:46:35;42.33;;;18.33;;
21012;SDS011;10664;53.582;9.712;2023-02-22T22:49:05;40.10;;;18.23;;
21012;SDS011;10664;53.582;9.712;2023-02-22T22:51:31;38.80;;;18.47;;
21012;SDS011;10664;53.582;9.712;2023-02-22T22:53:57;40.33;;;18.37;;
21012;SDS011;10664;53.582;9.712;2023-02-22T22:56:23;40.77;;;18.20;;
21012;SDS011;10664;53.582;9.712;2023-02-22T22:58:56;42.07;;;17.97;;
21012;SDS011;10664;53.582;9.712;2023-02-22T23:01:25;37.80;;;17.30;;
21012;SDS011;10664;53.582;9.712;2023-02-22T23:03:56;41.83;;;17.77;;
21012;SDS011;10664;53.582;9.712;2023-02-22T23:06:23;37.67;;;18.43;;
21012;SDS011;10664;53.582;9.712;2023-02-22T23:08:56;36.37;;;17.57;;
21012;SDS011;10664;53.582;9.712;2023-02-22T23:11:24;37.93;;;17.20;;
21012;SDS011;10664;53.582;9.712;2023-02-22T23:13:50;35.77;;;17.23;;
21012;SDS011;10664;53.582;9.712;2023-02-22T23:16:16;40.17;;;17.97;;
21012;SDS011;10664;53.582;9.712;2023-02-22T23:18:44;39.00;;;18.23;;
21012;SDS011;10664;53.582;9.712;2023-02-22T23:21:10;37.90;;;17.47;;
21012;SDS011;10664;53.582;9.712;2023-02-22T23:23:36;34.00;;;17.23;;
21012;SDS011;10664;53.582;9.712;2023-02-22T23:26:03;33.37;;;17.33;;
21012;SDS011;10664;53.582;9.712;2023-02-22T23:28:35;37.23;;;16.53;;
21012;SDS011;10664;53.582;9.712;2023-02-22T23:31:04;37.27;;;17.93;;
21012;SDS011;10664;53.582;9.712;2023-02-22T23:33:30;32.87;;;16.87;;
21012;SDS011;10664;53.582;9.712;2023-02-22T23:35:56;38.50;;;18.23;;
21012;SDS011;10664;53.582;9.712;2023-02-22T23:38:22;36.33;;;17.43;;
21012;SDS011;10664;53.582;9.712;2023-02-22T23:40:48;38.40;;;17.67;;
21012;SDS011;10664;53.582;9.712;2023-02-22T23:43:17;36.63;;;18.87;;
21012;SDS011;10664;53.582;9.712;2023-02-22T23:45:44;34.40;;;17.43;;
21012;SDS011;10664;53.582;9.712;2023-02-22T23:48:11;34.33;;;17.27;;
21012;SDS011;10664;53.582;9.712;2023-02-22T23:50:37;32.63;;;16.63;;
21012;SDS011;10664;53.582;9.712;2023-02-22T23:53:03;33.10;;;17.27;;
21012;SDS011;10664;53.582;9.712;2023-02-22T23:55:30;28.83;;;17.60;;
21012;SDS011;10664;53.582;9.712;2023-02-22T23:57:57;33.77;;;17.13;;
